createdAt,value
2022-11-05T00:00:44.481Z,44.50
2022-11-05T00:03:58.579Z,44.40
2022-11-05T00:07:18.405Z,44.60
2022-11-05T00:10:25.258Z,44.60
2022-11-05T00:13:38.530Z,44.30
2022-11-05T00:16:46.914Z,44.40
2022-11-05T00:19:48.329Z,44.30
2022-11-05T00:23:04.401Z,44.60
2022-11-05T00:26:08.921Z,44.30
2022-11-05T00:29:10.906Z,44.60
2022-11-05T00:32:13.095Z,44.50
2022-11-05T00:35:15.374Z,44.60
2022-11-05T00:38:16.854Z,44.80
2022-11-05T00:41:18.224Z,44.80
2022-11-05T00:44:34.869Z,44.80
2022-11-05T00:47:48.429Z,44.50
2022-11-05T00:50:49.875Z,44.80
2022-11-05T00:53:51.094Z,44.70
2022-11-05T00:56:52.506Z,45.00
2022-11-05T00:59:54.635Z,44.60
2022-11-05T01:02:58.426Z,44.50
2022-11-05T01:06:08.750Z,44.60
2022-11-05T01:09:10.173Z,44.60
2022-11-05T01:12:11.683Z,44.60
2022-11-05T01:15:13.680Z,45.10
2022-11-05T01:18:15.075Z,44.50
2022-11-05T01:21:16.495Z,44.70
2022-11-05T01:24:17.862Z,44.80
2022-11-05T01:27:19.316Z,44.60
2022-11-05T01:30:21.305Z,45.00
2022-11-05T01:33:23.210Z,58.90
2022-11-05T01:36:24.699Z,44.80
2022-11-05T01:39:26.183Z,44.80
2022-11-05T01:42:31.994Z,45.10
2022-11-05T01:45:34.715Z,44.80
2022-11-05T01:48:37.225Z,45.20
2022-11-05T01:51:39.688Z,44.80
2022-11-05T01:54:41.256Z,45.00
2022-11-05T01:57:42.857Z,45.20
2022-11-05T02:00:45.031Z,44.90
2022-11-05T02:03:48.470Z,44.90
2022-11-05T02:06:50.214Z,45.10
2022-11-05T02:09:58.556Z,45.20
2022-11-05T02:13:00.277Z,45.60
2022-11-05T02:16:09.627Z,45.00
2022-11-05T02:19:37.034Z,45.10
2022-11-05T02:23:06.663Z,45.10
2022-11-05T02:26:31.014Z,45.20
2022-11-05T02:30:02.773Z,44.90
2022-11-05T02:33:09.862Z,45.00
2022-11-05T02:36:26.977Z,45.20
2022-11-05T02:39:38.740Z,45.30
2022-11-05T02:42:47.106Z,45.10
2022-11-05T02:45:57.851Z,45.10
2022-11-05T02:49:08.267Z,45.00
2022-11-05T02:52:16.030Z,45.20
2022-11-05T02:55:23.189Z,45.10
2022-11-05T02:58:27.178Z,45.00
2022-11-05T03:01:28.657Z,45.10
2022-11-05T03:04:31.349Z,45.40
2022-11-05T03:07:43.420Z,45.40
2022-11-05T03:10:54.070Z,45.20
2022-11-05T03:14:02.234Z,45.30
2022-11-05T03:17:13.255Z,45.30
2022-11-05T03:20:19.590Z,45.30
2022-11-05T03:23:26.938Z,45.30
2022-11-05T03:26:32.773Z,45.30
2022-11-05T03:29:41.381Z,45.40
2022-11-05T03:32:50.282Z,45.30
2022-11-05T03:35:54.961Z,45.40
2022-11-05T03:38:58.910Z,45.20
2022-11-05T03:42:04.162Z,59.80
2022-11-05T03:45:12.686Z,45.20
2022-11-05T03:48:16.770Z,45.20
2022-11-05T03:51:28.891Z,45.40
2022-11-05T03:54:30.781Z,45.40
2022-11-05T03:57:36.445Z,45.30
2022-11-05T04:00:37.891Z,45.50
2022-11-05T04:03:39.128Z,45.60
2022-11-05T04:06:55.773Z,45.80
2022-11-05T04:10:08.725Z,45.50
2022-11-05T04:13:25.358Z,45.60
2022-11-05T04:16:38.721Z,45.70
2022-11-05T04:19:56.420Z,45.60
2022-11-05T04:23:14.300Z,45.60
2022-11-05T04:26:15.847Z,45.60
2022-11-05T04:29:28.734Z,45.50
2022-11-05T04:32:30.110Z,46.00
2022-11-05T04:35:33.972Z,45.80
2022-11-05T04:38:36.003Z,45.60
2022-11-05T04:41:37.463Z,45.80
2022-11-05T04:44:38.841Z,45.90
2022-11-05T04:47:40.220Z,46.00
2022-11-05T04:50:41.845Z,46.00
2022-11-05T04:53:43.857Z,46.10
2022-11-05T04:56:45.448Z,46.20
2022-11-05T04:59:47.415Z,46.00
2022-11-05T05:02:49.367Z,46.00
2022-11-05T05:05:53.704Z,45.90
2022-11-05T05:08:56.055Z,46.00
2022-11-05T05:11:57.428Z,46.00
2022-11-05T05:14:59.135Z,46.20
2022-11-05T05:18:00.672Z,46.40
2022-11-05T05:21:17.101Z,46.10
2022-11-05T05:24:20.305Z,46.40
2022-11-05T05:27:22.087Z,46.20
2022-11-05T05:30:24.039Z,46.00
2022-11-05T05:33:25.471Z,45.90
2022-11-05T05:36:27.064Z,46.30
2022-11-05T05:39:29.172Z,46.30
2022-11-05T05:42:30.640Z,46.40
2022-11-05T05:45:32.154Z,46.40
2022-11-05T05:48:33.933Z,46.40
2022-11-05T05:51:35.398Z,46.40
2022-11-05T05:54:42.435Z,46.90
2022-11-05T05:57:44.567Z,46.50
2022-11-05T06:00:45.794Z,46.40
2022-11-05T06:03:47.944Z,46.90
2022-11-05T06:06:49.327Z,46.50
2022-11-05T06:09:51.299Z,46.50
2022-11-05T06:12:52.669Z,46.70
2022-11-05T06:15:58.989Z,46.60
2022-11-05T06:19:00.593Z,46.70
2022-11-05T06:22:02.041Z,46.40
2022-11-05T06:25:04.831Z,46.60
2022-11-05T06:28:06.379Z,46.50
2022-11-05T06:31:07.962Z,46.50
2022-11-05T06:34:09.557Z,46.90
2022-11-05T06:37:11.629Z,46.80
2022-11-05T06:40:13.600Z,46.90
2022-11-05T06:43:15.124Z,46.80
2022-11-05T06:46:16.575Z,46.90
2022-11-05T06:49:18.013Z,46.80
2022-11-05T06:52:19.885Z,46.80
2022-11-05T06:55:21.856Z,46.80
2022-11-05T06:58:26.557Z,46.90
2022-11-05T07:01:28.018Z,46.70
2022-11-05T07:04:29.502Z,46.90
2022-11-05T07:07:30.875Z,47.10
2022-11-05T07:10:33.153Z,47.10
2022-11-05T07:13:34.559Z,46.90
2022-11-05T07:16:36.072Z,47.00
2022-11-05T07:19:37.319Z,47.00
2022-11-05T07:22:38.882Z,47.10
2022-11-05T07:25:41.299Z,47.10
2022-11-05T07:28:42.913Z,47.10
2022-11-05T07:31:46.108Z,46.90
2022-11-05T07:34:47.510Z,46.80
2022-11-05T07:37:50.581Z,46.80
2022-11-05T07:40:52.584Z,46.90
2022-11-05T07:43:53.983Z,47.10
2022-11-05T07:46:55.834Z,46.80
2022-11-05T07:49:57.209Z,47.00
2022-11-05T07:53:00.691Z,47.00
2022-11-05T07:56:02.754Z,46.80
2022-11-05T07:59:04.404Z,46.90
2022-11-05T08:02:08.551Z,46.90
2022-11-05T08:05:11.484Z,46.60
2022-11-05T08:08:15.013Z,46.70
2022-11-05T08:11:18.069Z,46.50
2022-11-05T08:14:19.964Z,46.80
2022-11-05T08:17:24.644Z,46.80
2022-11-05T08:20:26.465Z,47.20
2022-11-05T08:23:29.658Z,47.20
2022-11-05T08:26:31.636Z,46.60
2022-11-05T08:29:33.161Z,46.70
2022-11-05T08:32:34.876Z,46.70
2022-11-05T08:35:39.843Z,46.90
2022-11-05T08:38:41.367Z,46.80
2022-11-05T08:41:43.443Z,60.30
2022-11-05T08:44:44.860Z,46.80
2022-11-05T08:47:49.371Z,46.60
2022-11-05T08:50:50.819Z,47.00
2022-11-05T08:53:52.049Z,46.80
2022-11-05T08:56:54.089Z,47.00
2022-11-05T08:59:55.665Z,46.90
2022-11-05T09:02:58.119Z,46.80
2022-11-05T09:05:59.855Z,47.20
2022-11-05T09:09:01.672Z,46.90
2022-11-05T09:12:12.225Z,47.30
2022-11-05T09:15:14.669Z,47.40
2022-11-05T09:18:17.227Z,47.30
2022-11-05T09:21:19.331Z,47.50
2022-11-05T09:24:20.714Z,47.50
2022-11-05T09:27:22.678Z,47.70
2022-11-05T09:30:24.287Z,47.60
2022-11-05T09:33:26.131Z,47.80
2022-11-05T09:36:27.619Z,48.10
2022-11-05T09:39:28.920Z,47.80
2022-11-05T09:42:37.102Z,48.20
2022-11-05T09:45:38.637Z,47.90
2022-11-05T09:48:44.701Z,48.00
2022-11-05T09:51:46.459Z,48.40
2022-11-05T09:54:49.521Z,48.00
2022-11-05T09:57:54.977Z,48.20
2022-11-05T10:00:57.627Z,48.30
2022-11-05T10:04:02.189Z,48.50
2022-11-05T10:07:07.155Z,48.60
2022-11-05T10:10:19.321Z,48.70
2022-11-05T10:13:27.642Z,48.50
2022-11-05T10:16:33.646Z,48.70
2022-11-05T10:19:41.314Z,48.80
2022-11-05T10:22:46.609Z,49.00
2022-11-05T10:25:54.248Z,49.10
2022-11-05T10:28:56.511Z,49.20
2022-11-05T10:32:04.705Z,49.10
2022-11-05T10:35:10.097Z,49.50
2022-11-05T10:38:13.936Z,49.60
2022-11-05T10:41:32.347Z,49.40
2022-11-05T10:44:40.744Z,49.70
2022-11-05T10:47:56.088Z,49.50
2022-11-05T10:50:58.493Z,49.90
2022-11-05T10:54:03.981Z,50.00
2022-11-05T10:57:29.736Z,49.90
2022-11-05T11:00:31.851Z,50.00
2022-11-05T11:03:39.030Z,50.30
2022-11-05T11:06:48.147Z,50.20
2022-11-05T11:09:50.714Z,50.30
2022-11-05T11:12:52.808Z,50.60
2022-11-05T11:16:12.339Z,50.60
2022-11-05T11:19:25.513Z,50.70
2022-11-05T11:22:27.034Z,50.70
2022-11-05T11:25:29.443Z,50.90
2022-11-05T11:28:34.450Z,51.20
2022-11-05T11:31:38.916Z,50.90
2022-11-05T11:34:42.718Z,50.80
2022-11-05T11:37:45.408Z,51.10
2022-11-05T11:40:46.824Z,51.00
2022-11-05T11:43:48.336Z,51.20
2022-11-05T11:46:51.657Z,51.90
2022-11-05T11:49:54.930Z,51.40
2022-11-05T11:53:18.102Z,51.10
2022-11-05T11:56:21.063Z,51.50
2022-11-05T11:59:46.879Z,51.40
2022-11-05T12:03:12.101Z,51.70
2022-11-05T12:06:24.270Z,51.80
2022-11-05T12:09:34.322Z,51.60
2022-11-05T12:12:44.300Z,52.00
2022-11-05T12:15:51.078Z,51.80
2022-11-05T12:19:02.646Z,52.30
2022-11-05T12:22:09.189Z,52.50
2022-11-05T12:25:20.913Z,52.40
2022-11-05T12:28:57.853Z,52.60
2022-11-05T12:32:24.596Z,52.70
2022-11-05T12:35:44.113Z,52.90
2022-11-05T12:39:03.529Z,52.80
2022-11-05T12:42:14.147Z,53.00
2022-11-05T12:45:27.944Z,53.10
2022-11-05T12:48:45.655Z,53.00
2022-11-05T12:52:00.539Z,53.30
2022-11-05T12:55:06.628Z,53.10
2022-11-05T12:58:12.567Z,53.40
2022-11-05T13:01:18.974Z,53.50
2022-11-05T13:04:31.915Z,53.60
2022-11-05T13:07:39.018Z,53.90
2022-11-05T13:10:45.126Z,53.90
2022-11-05T13:13:57.933Z,54.20
2022-11-05T13:17:02.635Z,54.20
2022-11-05T13:20:17.294Z,54.50
2022-11-05T13:23:28.668Z,54.40
2022-11-05T13:26:36.985Z,54.70
2022-11-05T13:29:44.941Z,54.50
2022-11-05T13:32:52.747Z,54.70
2022-11-05T13:36:12.657Z,54.80
2022-11-05T13:39:18.383Z,54.70
2022-11-05T13:42:48.896Z,54.80
2022-11-05T13:46:09.172Z,55.00
2022-11-05T13:49:30.975Z,55.00
2022-11-05T13:52:51.336Z,54.80
2022-11-05T13:56:04.259Z,55.10
2022-11-05T13:59:29.283Z,55.90
2022-11-05T14:02:37.765Z,55.60
2022-11-05T14:05:40.940Z,55.30
2022-11-05T14:08:45.683Z,55.40
2022-11-05T14:11:53.135Z,55.40
2022-11-05T14:15:01.603Z,55.40
2022-11-05T14:18:05.283Z,55.30
2022-11-05T14:21:29.879Z,55.20
2022-11-05T14:24:46.536Z,55.40
2022-11-05T14:27:51.618Z,55.60
2022-11-05T14:30:53.000Z,55.40
2022-11-05T14:34:00.991Z,55.60
2022-11-05T14:37:21.651Z,55.60
2022-11-05T14:40:32.742Z,55.60
2022-11-05T14:43:35.462Z,55.50
2022-11-05T14:46:41.414Z,55.70
2022-11-05T14:49:52.152Z,55.70
2022-11-05T14:52:56.443Z,55.70
2022-11-05T14:56:01.673Z,55.80
2022-11-05T14:59:30.774Z,56.30
2022-11-05T15:02:37.178Z,56.00
2022-11-05T15:05:49.510Z,56.00
2022-11-05T15:08:56.464Z,55.90
2022-11-05T15:12:08.526Z,56.00
2022-11-05T15:15:22.165Z,55.90
2022-11-05T15:18:30.223Z,56.20
2022-11-05T15:21:35.038Z,56.00
2022-11-05T15:24:38.102Z,56.00
2022-11-05T15:27:49.964Z,56.10
2022-11-05T15:30:56.878Z,56.10
2022-11-05T15:34:16.984Z,55.90
2022-11-05T15:37:22.395Z,55.90
2022-11-05T15:40:26.640Z,55.90
2022-11-05T15:43:28.532Z,56.00
2022-11-05T15:46:30.459Z,56.20
2022-11-05T15:49:32.852Z,56.00
2022-11-05T15:52:36.403Z,56.00
2022-11-05T15:55:49.099Z,56.10
2022-11-05T15:58:53.980Z,55.90
2022-11-05T16:02:16.363Z,55.80
2022-11-05T16:05:18.683Z,56.10
2022-11-05T16:08:22.624Z,55.90
2022-11-05T16:11:25.883Z,56.00
2022-11-05T16:14:34.489Z,56.30
2022-11-05T16:17:47.071Z,56.10
2022-11-05T16:21:04.795Z,56.20
2022-11-05T16:24:26.539Z,56.30
2022-11-05T16:27:30.673Z,56.50
2022-11-05T16:30:32.093Z,56.50
2022-11-05T16:33:39.912Z,56.60
2022-11-05T16:36:41.946Z,56.40
2022-11-05T16:39:43.790Z,56.50
2022-11-05T16:42:47.767Z,56.50
2022-11-05T16:45:52.272Z,56.50
2022-11-05T16:48:53.934Z,56.40
2022-11-05T16:52:00.989Z,56.90
2022-11-05T16:55:02.459Z,56.50
2022-11-05T16:58:03.772Z,56.60
2022-11-05T17:01:07.393Z,56.70
2022-11-05T17:04:12.963Z,56.60
2022-11-05T17:07:15.002Z,56.80
2022-11-05T17:10:20.138Z,56.50
2022-11-05T17:13:21.536Z,56.70
2022-11-05T17:16:23.120Z,57.20
2022-11-05T17:19:24.511Z,56.70
2022-11-05T17:22:26.623Z,56.50
2022-11-05T17:25:28.461Z,56.70
2022-11-05T17:28:30.412Z,56.60
2022-11-05T17:31:31.791Z,56.60
2022-11-05T17:34:33.369Z,56.60
2022-11-05T17:37:35.580Z,56.60
2022-11-05T17:40:38.112Z,56.60
2022-11-05T17:43:39.653Z,56.30
2022-11-05T17:46:41.202Z,56.60
2022-11-05T17:49:42.444Z,56.50
2022-11-05T17:52:44.615Z,56.50
2022-11-05T17:55:46.965Z,56.30
2022-11-05T17:58:48.436Z,56.40
2022-11-05T18:01:49.810Z,56.20
2022-11-05T18:04:51.384Z,56.40
2022-11-05T18:07:53.533Z,56.20
2022-11-05T18:10:55.069Z,56.10
2022-11-05T18:13:56.329Z,56.20
2022-11-05T18:16:59.372Z,56.10
2022-11-05T18:20:00.919Z,55.70
2022-11-05T18:23:03.279Z,56.10
2022-11-05T18:26:08.169Z,56.00
2022-11-05T18:29:09.751Z,55.80
2022-11-05T18:32:11.205Z,55.80
2022-11-05T18:35:13.627Z,55.80
2022-11-05T18:38:15.687Z,55.80
2022-11-05T18:41:18.338Z,55.70
2022-11-05T18:44:21.950Z,55.30
2022-11-05T18:47:23.348Z,55.30
2022-11-05T18:50:24.786Z,55.40
2022-11-05T18:53:27.140Z,55.50
2022-11-05T18:56:28.811Z,56.20
2022-11-05T18:59:39.526Z,55.20
2022-11-05T19:02:41.455Z,55.30
2022-11-05T19:05:46.072Z,55.50
2022-11-05T19:08:48.363Z,55.50
2022-11-05T19:11:51.457Z,55.30
2022-11-05T19:14:56.694Z,55.30
2022-11-05T19:18:00.827Z,55.20
2022-11-05T19:21:07.483Z,55.20
2022-11-05T19:24:09.886Z,55.20
2022-11-05T19:27:11.308Z,55.10
2022-11-05T19:30:12.797Z,55.10
2022-11-05T19:33:14.061Z,55.00
2022-11-05T19:36:16.723Z,55.20
2022-11-05T19:39:18.768Z,55.00
2022-11-05T19:42:20.258Z,55.00
2022-11-05T19:45:43.529Z,55.10
2022-11-05T19:48:43.805Z,55.20
2022-11-05T19:51:45.242Z,55.10
2022-11-05T19:54:47.326Z,55.00
2022-11-05T19:57:48.827Z,54.90
2022-11-05T20:00:50.083Z,55.00
2022-11-05T20:03:53.098Z,55.10
2022-11-05T20:06:54.653Z,55.00
2022-11-05T20:09:56.505Z,55.10
2022-11-05T20:12:57.907Z,54.90
2022-11-05T20:15:59.693Z,54.90
2022-11-05T20:19:01.086Z,54.80
2022-11-05T20:22:03.841Z,54.80
2022-11-05T20:25:07.367Z,55.00
2022-11-05T20:28:09.324Z,54.60
2022-11-05T20:31:12.441Z,54.80
2022-11-05T20:34:13.879Z,54.70
2022-11-05T20:37:18.266Z,55.00
2022-11-05T20:40:20.811Z,54.90
2022-11-05T20:43:30.196Z,54.90
2022-11-05T20:46:32.290Z,55.10
2022-11-05T20:49:33.712Z,54.60
2022-11-05T20:52:35.162Z,55.00
2022-11-05T20:55:41.746Z,55.10
2022-11-05T20:58:43.157Z,54.80
2022-11-05T21:01:45.181Z,55.00
2022-11-05T21:04:47.020Z,54.90
2022-11-05T21:07:48.481Z,55.10
2022-11-05T21:10:51.546Z,55.20
2022-11-05T21:13:54.055Z,54.90
2022-11-05T21:16:55.469Z,55.20
2022-11-05T21:19:56.850Z,55.20
2022-11-05T21:22:58.568Z,55.20
2022-11-05T21:26:04.688Z,55.00
2022-11-05T21:29:06.943Z,55.20
2022-11-05T21:32:08.922Z,55.10
2022-11-05T21:35:10.325Z,55.10
2022-11-05T21:38:14.148Z,55.40
2022-11-05T21:41:16.424Z,55.20
2022-11-05T21:44:20.986Z,55.60
2022-11-05T21:47:22.398Z,55.50
2022-11-05T21:50:44.630Z,55.70
2022-11-05T21:53:59.042Z,55.80
2022-11-05T21:57:15.992Z,55.60
2022-11-05T22:00:20.607Z,55.50
2022-11-05T22:03:22.127Z,55.60
2022-11-05T22:06:23.417Z,55.90
2022-11-05T22:09:25.776Z,55.90
2022-11-05T22:12:28.637Z,55.70
2022-11-05T22:15:33.147Z,55.70
2022-11-05T22:18:34.498Z,55.90
2022-11-05T22:21:35.879Z,55.80
2022-11-05T22:24:38.195Z,56.00
2022-11-05T22:27:40.166Z,56.00
2022-11-05T22:30:41.654Z,56.10
2022-11-05T22:33:43.049Z,56.30
2022-11-05T22:36:44.479Z,56.20
2022-11-05T22:39:48.875Z,56.10
2022-11-05T22:42:50.870Z,56.40
2022-11-05T22:45:55.380Z,56.20
2022-11-05T22:48:57.442Z,56.30
2022-11-05T22:51:59.408Z,56.30
2022-11-05T22:55:03.030Z,56.30
2022-11-05T22:58:05.079Z,56.40
2022-11-05T23:01:09.633Z,56.40
2022-11-05T23:04:12.221Z,56.40
2022-11-05T23:07:28.312Z,56.60
2022-11-05T23:10:44.973Z,56.50
2022-11-05T23:13:46.995Z,56.50
2022-11-05T23:16:59.510Z,56.70
2022-11-05T23:20:15.977Z,56.60
2022-11-05T23:23:29.417Z,56.70
2022-11-05T23:26:47.548Z,56.80
2022-11-05T23:29:49.495Z,56.80
2022-11-05T23:32:52.417Z,56.70
2022-11-05T23:36:08.845Z,56.80
2022-11-05T23:39:10.197Z,57.00
2022-11-05T23:42:26.486Z,57.00
2022-11-05T23:45:44.470Z,57.10
2022-11-05T23:48:45.972Z,57.00
2022-11-05T23:51:48.223Z,57.20
2022-11-05T23:54:49.666Z,57.20
2022-11-05T23:57:51.597Z,57.20
